createdAt,value
2022-10-22T00:01:36.943Z,16.50
2022-10-22T00:04:03.837Z,14.50
2022-10-22T00:06:30.348Z,13.23
2022-10-22T00:08:56.802Z,12.67
2022-10-22T00:11:23.446Z,12.93
2022-10-22T00:13:50.166Z,13.73
2022-10-22T00:16:16.612Z,13.60
2022-10-22T00:18:43.252Z,12.60
2022-10-22T00:21:09.789Z,13.43
2022-10-22T00:23:36.230Z,13.67
2022-10-22T00:26:02.674Z,15.10
2022-10-22T00:28:29.073Z,15.60
2022-10-22T00:30:59.604Z,15.50
2022-10-22T00:33:26.850Z,13.77
2022-10-22T00:35:53.354Z,15.63
2022-10-22T00:38:19.758Z,16.10
2022-10-22T00:40:46.445Z,13.80
2022-10-22T00:43:18.110Z,13.30
2022-10-22T00:45:46.069Z,13.73
2022-10-22T00:48:18.783Z,14.20
2022-10-22T00:50:49.370Z,13.60
2022-10-22T00:53:20.997Z,14.70
2022-10-22T00:55:52.441Z,13.87
2022-10-22T00:58:21.220Z,16.40
2022-10-22T01:00:48.616Z,15.77
2022-10-22T01:03:15.211Z,15.20
2022-10-22T01:05:53.832Z,19.53
2022-10-22T01:08:29.191Z,19.10
2022-10-22T01:11:30.439Z,17.60
2022-10-22T01:14:39.074Z,16.30
2022-10-22T01:17:31.807Z,14.83
2022-10-22T01:20:22.528Z,13.50
2022-10-22T01:23:34.148Z,18.13
2022-10-22T01:26:06.871Z,17.40
2022-10-22T01:28:56.478Z,17.07
2022-10-22T01:31:24.247Z,16.60
2022-10-22T01:33:51.750Z,17.80
2022-10-22T01:36:18.617Z,18.13
2022-10-22T01:38:46.172Z,16.33
2022-10-22T01:41:13.828Z,15.10
2022-10-22T01:43:40.217Z,15.30
2022-10-22T01:46:07.254Z,15.30
2022-10-22T01:48:56.252Z,15.33
2022-10-22T01:51:49.956Z,14.10
2022-10-22T01:54:38.588Z,15.70
2022-10-22T01:57:17.702Z,15.70
2022-10-22T02:00:12.687Z,15.97
2022-10-22T02:02:49.865Z,14.17
2022-10-22T02:05:21.306Z,14.83
2022-10-22T02:07:51.228Z,15.83
2022-10-22T02:10:18.530Z,15.50
2022-10-22T02:12:46.313Z,16.47
2022-10-22T02:15:13.680Z,16.67
2022-10-22T02:17:42.648Z,15.83
2022-10-22T02:20:18.608Z,16.83
2022-10-22T02:22:45.455Z,15.80
2022-10-22T02:25:12.293Z,14.03
2022-10-22T02:27:44.450Z,14.73
2022-10-22T02:30:21.891Z,13.63
2022-10-22T02:33:17.989Z,13.63
2022-10-22T02:35:44.626Z,12.70
2022-10-22T02:38:11.657Z,13.30
2022-10-22T02:40:38.385Z,13.67
2022-10-22T02:43:06.001Z,13.50
2022-10-22T02:45:32.645Z,12.53
2022-10-22T02:47:59.112Z,13.07
2022-10-22T02:50:25.543Z,13.87
2022-10-22T02:52:52.019Z,13.97
2022-10-22T02:55:18.475Z,13.83
2022-10-22T02:57:46.104Z,13.27
2022-10-22T03:00:12.908Z,12.30
2022-10-22T03:02:39.453Z,12.70
2022-10-22T03:05:06.438Z,13.50
2022-10-22T03:07:33.053Z,12.90
2022-10-22T03:09:59.843Z,13.87
2022-10-22T03:12:26.239Z,12.77
2022-10-22T03:14:52.708Z,11.80
2022-10-22T03:17:19.173Z,11.87
2022-10-22T03:19:45.581Z,12.07
2022-10-22T03:22:15.968Z,12.63
2022-10-22T03:24:44.769Z,12.23
2022-10-22T03:27:13.237Z,11.93
2022-10-22T03:29:40.513Z,12.67
2022-10-22T03:32:07.395Z,12.23
2022-10-22T03:34:33.822Z,12.93
2022-10-22T03:37:01.444Z,14.63
2022-10-22T03:39:29.865Z,13.70
2022-10-22T03:41:56.394Z,15.27
2022-10-22T03:44:23.609Z,16.83
2022-10-22T03:46:50.937Z,15.50
2022-10-22T03:49:17.317Z,14.80
2022-10-22T03:51:43.717Z,15.83
2022-10-22T03:54:10.120Z,18.00
2022-10-22T03:56:36.560Z,16.17
2022-10-22T03:59:03.575Z,15.20
2022-10-22T04:01:30.934Z,14.20
2022-10-22T04:03:57.952Z,12.77
2022-10-22T04:06:24.667Z,12.40
2022-10-22T04:08:51.476Z,13.37
2022-10-22T04:11:18.106Z,12.67
2022-10-22T04:13:44.588Z,14.07
2022-10-22T04:16:13.908Z,12.20
2022-10-22T04:18:41.091Z,12.40
2022-10-22T04:21:08.705Z,13.00
2022-10-22T04:23:35.153Z,13.17
2022-10-22T04:26:03.719Z,11.90
2022-10-22T04:28:30.350Z,12.20
2022-10-22T04:30:56.850Z,13.93
2022-10-22T04:33:23.442Z,17.13
2022-10-22T04:35:51.229Z,15.30
2022-10-22T04:38:17.700Z,16.97
2022-10-22T04:40:44.179Z,16.17
2022-10-22T04:43:10.688Z,17.80
2022-10-22T04:45:37.137Z,16.43
2022-10-22T04:48:03.582Z,16.10
2022-10-22T04:50:30.844Z,13.70
2022-10-22T04:52:57.274Z,14.20
2022-10-22T04:55:23.739Z,12.53
2022-10-22T04:57:50.335Z,12.33
2022-10-22T05:00:17.154Z,13.33
2022-10-22T05:02:44.765Z,12.93
2022-10-22T05:05:11.954Z,14.37
2022-10-22T05:07:38.783Z,15.20
2022-10-22T05:10:06.296Z,13.50
2022-10-22T05:12:32.824Z,14.17
2022-10-22T05:14:59.312Z,13.90
2022-10-22T05:17:25.750Z,13.33
2022-10-22T05:19:52.198Z,12.83
2022-10-22T05:22:18.699Z,12.73
2022-10-22T05:24:45.173Z,13.37
2022-10-22T05:27:11.637Z,12.57
2022-10-22T05:29:38.186Z,12.30
2022-10-22T05:32:05.114Z,13.77
2022-10-22T05:34:33.262Z,14.90
2022-10-22T05:36:59.670Z,14.60
2022-10-22T05:39:26.255Z,14.77
2022-10-22T05:41:53.944Z,14.87
2022-10-22T05:44:20.517Z,15.80
2022-10-22T05:46:46.987Z,15.73
2022-10-22T05:49:15.347Z,17.20
2022-10-22T05:51:41.909Z,13.80
2022-10-22T05:54:08.616Z,12.90
2022-10-22T05:56:35.434Z,16.13
2022-10-22T06:01:35.269Z,14.73
2022-10-22T06:04:04.173Z,13.93
2022-10-22T06:06:34.580Z,12.83
2022-10-22T06:09:04.544Z,13.37
2022-10-22T06:11:34.219Z,14.20
2022-10-22T06:14:01.780Z,14.97
2022-10-22T06:16:29.889Z,14.13
2022-10-22T06:18:56.380Z,14.60
2022-10-22T06:21:22.939Z,13.50
2022-10-22T06:23:49.446Z,13.07
2022-10-22T06:26:17.798Z,14.80
2022-10-22T06:28:44.232Z,13.03
2022-10-22T06:31:10.678Z,14.20
2022-10-22T06:33:42.231Z,14.17
2022-10-22T06:36:14.109Z,14.93
2022-10-22T06:38:40.944Z,15.43
2022-10-22T06:41:10.003Z,15.40
2022-10-22T06:43:36.684Z,15.10
2022-10-22T06:46:05.822Z,14.30
2022-10-22T06:48:32.993Z,14.03
2022-10-22T06:51:04.099Z,14.57
2022-10-22T06:53:31.969Z,14.90
2022-10-22T06:55:58.377Z,13.93
2022-10-22T06:58:24.805Z,12.80
2022-10-22T07:01:05.397Z,13.93
2022-10-22T07:03:31.990Z,15.03
2022-10-22T07:06:03.080Z,16.63
2022-10-22T07:08:29.785Z,17.07
2022-10-22T07:10:56.768Z,17.73
2022-10-22T07:13:23.356Z,17.70
2022-10-22T07:15:54.779Z,18.63
2022-10-22T07:18:22.315Z,19.60
2022-10-22T07:20:49.654Z,21.30
2022-10-22T07:23:16.557Z,19.90
2022-10-22T07:25:43.012Z,20.27
2022-10-22T07:28:09.994Z,18.07
2022-10-22T07:30:37.779Z,17.83
2022-10-22T07:33:04.561Z,17.33
2022-10-22T07:35:31.287Z,17.97
2022-10-22T07:37:57.697Z,18.10
2022-10-22T07:40:24.126Z,17.40
2022-10-22T07:42:50.616Z,15.80
2022-10-22T07:45:17.091Z,17.20
2022-10-22T07:47:43.883Z,16.37
2022-10-22T07:50:10.466Z,15.33
2022-10-22T07:52:36.894Z,15.20
2022-10-22T07:55:04.190Z,14.97
2022-10-22T07:57:30.667Z,14.20
2022-10-22T07:59:58.111Z,12.57
2022-10-22T08:02:25.297Z,12.83
2022-10-22T08:04:52.052Z,14.43
2022-10-22T08:07:18.902Z,13.03
2022-10-22T08:09:45.452Z,14.10
2022-10-22T08:12:12.204Z,12.67
2022-10-22T08:14:38.622Z,11.97
2022-10-22T08:17:05.201Z,11.70
2022-10-22T08:19:32.489Z,11.40
2022-10-22T08:21:59.445Z,11.57
2022-10-22T08:24:27.019Z,12.00
2022-10-22T08:26:55.730Z,12.87
2022-10-22T08:29:23.397Z,12.07
2022-10-22T08:31:50.437Z,11.90
2022-10-22T08:34:17.288Z,11.20
2022-10-22T08:36:43.895Z,11.40
2022-10-22T08:39:10.340Z,10.07
2022-10-22T08:41:45.597Z,10.27
2022-10-22T08:44:27.387Z,9.77
2022-10-22T08:47:18.753Z,10.07
2022-10-22T08:49:48.040Z,10.00
2022-10-22T08:52:17.508Z,8.93
2022-10-22T08:54:58.710Z,9.50
2022-10-22T08:57:49.962Z,7.37
2022-10-22T09:00:33.885Z,7.60
2022-10-22T09:03:19.290Z,7.83
2022-10-22T09:08:21.924Z,6.80
2022-10-22T09:10:57.402Z,6.60
2022-10-22T09:13:24.118Z,7.33
2022-10-22T09:15:55.330Z,6.00
2022-10-22T09:18:33.650Z,6.53
2022-10-22T09:21:07.466Z,5.83
2022-10-22T09:23:39.196Z,6.20
2022-10-22T09:26:25.548Z,6.00
2022-10-22T09:28:52.150Z,6.03
2022-10-22T09:31:19.400Z,5.90
2022-10-22T09:33:48.906Z,6.10
2022-10-22T09:36:21.893Z,5.63
2022-10-22T09:38:51.271Z,5.50
2022-10-22T09:41:19.508Z,5.43
2022-10-22T09:43:49.497Z,4.83
2022-10-22T09:46:21.255Z,4.67
2022-10-22T09:49:18.164Z,4.90
2022-10-22T09:51:54.899Z,4.80
2022-10-22T09:54:31.586Z,4.63
2022-10-22T09:57:04.274Z,4.40
2022-10-22T09:59:32.825Z,4.50
2022-10-22T10:02:13.532Z,4.87
2022-10-22T10:04:52.575Z,4.90
2022-10-22T10:07:24.882Z,4.20
2022-10-22T10:09:52.095Z,5.13
2022-10-22T10:12:39.954Z,4.60
2022-10-22T10:15:28.663Z,4.97
2022-10-22T10:18:12.548Z,4.30
2022-10-22T10:20:45.703Z,4.87
2022-10-22T10:23:32.320Z,4.27
2022-10-22T10:26:14.420Z,4.60
2022-10-22T10:29:00.841Z,4.07
2022-10-22T10:31:38.931Z,4.83
2022-10-22T10:34:22.310Z,4.63
2022-10-22T10:37:04.213Z,4.40
2022-10-22T10:39:58.750Z,4.73
2022-10-22T10:42:44.659Z,4.27
2022-10-22T10:45:22.540Z,3.70
2022-10-22T10:48:04.262Z,4.20
2022-10-22T10:50:32.897Z,4.23
2022-10-22T10:53:18.120Z,4.47
2022-10-22T10:56:06.336Z,4.10
2022-10-22T10:58:51.377Z,4.53
2022-10-22T11:01:27.118Z,3.90
2022-10-22T11:04:15.760Z,4.07
2022-10-22T11:06:43.746Z,3.60
2022-10-22T11:09:29.832Z,3.77
2022-10-22T11:12:03.992Z,3.63
2022-10-22T11:14:36.131Z,3.40
2022-10-22T11:17:07.199Z,3.10
2022-10-22T11:19:50.908Z,4.07
2022-10-22T11:22:34.241Z,3.17
2022-10-22T11:25:12.760Z,2.93
2022-10-22T11:27:42.091Z,2.80
2022-10-22T11:30:15.456Z,3.23
2022-10-22T11:32:43.960Z,3.20
2022-10-22T11:35:17.076Z,2.90
2022-10-22T11:37:44.932Z,2.83
2022-10-22T11:40:20.197Z,2.87
2022-10-22T11:42:54.192Z,2.30
2022-10-22T11:45:23.802Z,3.33
2022-10-22T11:48:08.366Z,2.87
2022-10-22T11:50:41.008Z,3.20
2022-10-22T11:53:13.529Z,4.40
2022-10-22T11:55:45.428Z,3.43
2022-10-22T11:58:31.960Z,2.90
2022-10-22T12:01:03.768Z,3.50
2022-10-22T12:03:33.107Z,3.23
2022-10-22T12:06:11.681Z,3.83
2022-10-22T12:08:44.894Z,3.47
2022-10-22T12:11:13.785Z,2.97
2022-10-22T12:14:01.359Z,3.17
2022-10-22T12:16:54.735Z,2.63
2022-10-22T12:19:32.458Z,2.93
2022-10-22T12:22:08.204Z,2.77
2022-10-22T12:24:37.558Z,2.97
2022-10-22T12:27:04.198Z,2.60
2022-10-22T12:29:32.152Z,2.77
2022-10-22T12:32:03.268Z,2.47
2022-10-22T12:34:29.689Z,2.93
2022-10-22T12:36:57.116Z,3.10
2022-10-22T12:39:27.111Z,2.83
2022-10-22T12:41:54.915Z,2.63
2022-10-22T12:44:21.408Z,2.83
2022-10-22T12:46:52.931Z,2.53
2022-10-22T12:49:25.649Z,2.53
2022-10-22T12:51:52.044Z,2.07
2022-10-22T12:54:29.064Z,2.90
2022-10-22T12:56:56.552Z,2.37
2022-10-22T12:59:45.903Z,2.40
2022-10-22T13:02:21.509Z,2.30
2022-10-22T13:05:14.943Z,2.30
2022-10-22T13:07:43.549Z,2.87
2022-10-22T13:10:32.337Z,2.60
2022-10-22T13:12:59.361Z,2.70
2022-10-22T13:15:31.867Z,2.77
2022-10-22T13:18:03.814Z,2.73
2022-10-22T13:20:30.574Z,2.83
2022-10-22T13:23:02.787Z,2.43
2022-10-22T13:25:32.100Z,2.47
2022-10-22T13:28:20.112Z,2.53
2022-10-22T13:31:14.308Z,3.30
2022-10-22T13:33:46.119Z,3.20
2022-10-22T13:36:16.428Z,3.20
2022-10-22T13:38:43.529Z,2.83
2022-10-22T13:41:33.668Z,3.10
2022-10-22T13:44:00.123Z,3.33
2022-10-22T13:46:27.115Z,2.40
2022-10-22T13:48:57.246Z,2.77
2022-10-22T13:51:31.274Z,3.13
2022-10-22T13:53:57.839Z,2.80
2022-10-22T13:56:24.376Z,2.50
2022-10-22T13:58:51.169Z,2.60
2022-10-22T14:01:26.019Z,2.70
2022-10-22T14:03:54.665Z,2.73
2022-10-22T14:06:22.498Z,2.73
2022-10-22T14:08:54.402Z,2.43
2022-10-22T14:11:20.918Z,2.67
2022-10-22T14:13:47.382Z,2.47
2022-10-22T14:16:17.936Z,2.40
2022-10-22T14:18:44.391Z,1.83
2022-10-22T14:21:12.862Z,2.40
2022-10-22T14:23:39.929Z,1.97
2022-10-22T14:26:07.844Z,2.43
2022-10-22T14:28:41.341Z,2.37
2022-10-22T14:31:12.911Z,2.57
2022-10-22T14:33:39.400Z,2.50
2022-10-22T14:36:06.430Z,2.27
2022-10-22T14:38:32.872Z,2.47
2022-10-22T14:40:59.853Z,2.77
2022-10-22T14:43:28.640Z,2.47
2022-10-22T14:45:55.383Z,2.10
2022-10-22T14:48:21.782Z,2.23
2022-10-22T14:50:48.585Z,2.83
2022-10-22T14:53:16.771Z,2.47
2022-10-22T14:55:44.209Z,2.27
2022-10-22T14:58:12.302Z,2.20
2022-10-22T15:00:41.848Z,2.80
2022-10-22T15:03:08.644Z,2.47
2022-10-22T15:05:36.686Z,2.37
2022-10-22T15:08:03.262Z,2.73
2022-10-22T15:10:29.691Z,2.97
2022-10-22T15:12:56.190Z,2.50
2022-10-22T15:15:23.280Z,2.90
2022-10-22T15:17:51.074Z,2.60
2022-10-22T15:20:17.481Z,2.57
2022-10-22T15:22:45.272Z,2.60
2022-10-22T15:25:12.885Z,2.63
2022-10-22T15:27:39.507Z,2.87
2022-10-22T15:30:07.683Z,3.00
2022-10-22T15:32:34.219Z,2.80
2022-10-22T15:35:01.556Z,2.60
2022-10-22T15:37:28.208Z,2.87
2022-10-22T15:39:54.672Z,2.67
2022-10-22T15:42:21.144Z,3.13
2022-10-22T15:44:47.651Z,3.10
2022-10-22T15:47:14.129Z,3.20
2022-10-22T15:49:41.856Z,3.40
2022-10-22T15:52:09.200Z,3.40
2022-10-22T15:54:35.798Z,3.30
2022-10-22T15:57:03.525Z,3.37
2022-10-22T15:59:30.298Z,3.17
2022-10-22T16:01:56.758Z,3.27
2022-10-22T16:04:23.171Z,3.23
2022-10-22T16:06:52.760Z,3.37
2022-10-22T16:09:24.633Z,3.30
2022-10-22T16:14:24.030Z,4.13
2022-10-22T16:16:52.271Z,3.83
2022-10-22T16:19:20.489Z,3.90
2022-10-22T16:21:50.746Z,4.00
2022-10-22T16:24:17.665Z,3.87
2022-10-22T16:26:44.319Z,3.90
2022-10-22T16:29:12.504Z,4.80
2022-10-22T16:31:40.195Z,4.30
2022-10-22T16:34:07.393Z,4.53
2022-10-22T16:36:34.055Z,4.20
2022-10-22T16:39:00.450Z,4.57
2022-10-22T16:41:34.785Z,4.17
2022-10-22T16:44:03.294Z,5.00
2022-10-22T16:46:30.758Z,4.63
2022-10-22T16:48:57.250Z,4.13
2022-10-22T16:51:25.421Z,4.37
2022-10-22T16:53:52.624Z,5.10
2022-10-22T16:56:19.805Z,3.67
2022-10-22T16:58:51.929Z,4.80
2022-10-22T17:01:20.269Z,4.50
2022-10-22T17:03:47.074Z,5.20
2022-10-22T17:06:13.751Z,4.97
2022-10-22T17:08:41.222Z,4.73
2022-10-22T17:11:09.296Z,5.07
2022-10-22T17:13:36.291Z,5.43
2022-10-22T17:16:08.866Z,4.80
2022-10-22T17:18:37.270Z,5.20
2022-10-22T17:21:05.173Z,5.40
2022-10-22T17:23:31.762Z,5.40
2022-10-22T17:26:03.030Z,5.47
2022-10-22T17:28:30.217Z,4.60
2022-10-22T17:31:06.671Z,5.10
2022-10-22T17:33:34.268Z,5.83
2022-10-22T17:36:01.174Z,5.83
2022-10-22T17:38:27.710Z,6.20
2022-10-22T17:40:54.523Z,5.93
2022-10-22T17:43:21.028Z,6.10
2022-10-22T17:45:47.541Z,5.63
2022-10-22T17:48:13.970Z,5.43
2022-10-22T17:50:46.983Z,6.53
2022-10-22T17:53:17.885Z,5.83
2022-10-22T17:55:44.300Z,5.80
2022-10-22T17:58:10.913Z,5.40
2022-10-22T18:00:37.431Z,5.57
2022-10-22T18:03:03.953Z,5.17
2022-10-22T18:05:30.372Z,5.40
2022-10-22T18:07:57.452Z,5.40
2022-10-22T18:10:24.146Z,6.33
2022-10-22T18:12:50.790Z,5.90
2022-10-22T18:15:17.580Z,6.27
2022-10-22T18:17:44.455Z,6.30
2022-10-22T18:20:11.776Z,6.33
2022-10-22T18:22:41.280Z,6.00
2022-10-22T18:25:08.736Z,6.30
2022-10-22T18:27:35.150Z,6.30
2022-10-22T18:30:01.553Z,5.63
2022-10-22T18:32:27.988Z,5.67
2022-10-22T18:34:54.369Z,5.67
2022-10-22T18:37:20.819Z,6.10
2022-10-22T18:39:47.282Z,6.83
2022-10-22T18:44:40.055Z,9.03
2022-10-22T18:47:08.580Z,6.87
2022-10-22T18:49:35.211Z,6.23
2022-10-22T18:52:01.644Z,7.47
2022-10-22T18:54:28.076Z,8.47
2022-10-22T18:56:59.381Z,7.57
2022-10-22T18:59:28.425Z,7.40
2022-10-22T19:01:57.552Z,5.93
2022-10-22T19:04:23.931Z,6.93
2022-10-22T19:06:50.408Z,8.07
2022-10-22T19:09:17.481Z,8.27
2022-10-22T19:11:44.747Z,9.17
2022-10-22T19:14:13.097Z,10.03
2022-10-22T19:16:39.573Z,8.83
2022-10-22T19:19:06.999Z,7.50
2022-10-22T19:21:33.471Z,7.47
2022-10-22T19:24:00.813Z,7.73
2022-10-22T19:26:28.680Z,8.27
2022-10-22T19:28:55.937Z,8.53
2022-10-22T19:31:24.402Z,8.50
2022-10-22T19:33:51.895Z,8.03
2022-10-22T19:36:20.048Z,8.73
2022-10-22T19:38:48.227Z,8.70
2022-10-22T19:41:17.817Z,8.40
2022-10-22T19:43:45.422Z,8.47
2022-10-22T19:46:12.299Z,7.87
2022-10-22T19:48:38.759Z,7.97
2022-10-22T19:51:08.704Z,7.83
2022-10-22T19:53:37.253Z,8.43
2022-10-22T19:56:06.532Z,9.73
2022-10-22T19:58:33.712Z,9.50
2022-10-22T20:01:08.833Z,8.87
2022-10-22T20:03:36.435Z,9.77
2022-10-22T20:06:04.108Z,13.00
2022-10-22T20:08:32.014Z,10.97
2022-10-22T20:10:58.571Z,13.10
2022-10-22T20:13:25.032Z,13.50
2022-10-22T20:15:53.514Z,11.90
2022-10-22T20:18:22.293Z,11.60
2022-10-22T20:20:49.208Z,10.67
2022-10-22T20:23:15.740Z,10.73
2022-10-22T20:25:43.709Z,10.53
2022-10-22T20:28:10.360Z,9.97
2022-10-22T20:30:41.569Z,10.07
2022-10-22T20:33:08.230Z,9.03
2022-10-22T20:35:35.636Z,10.43
2022-10-22T20:38:02.548Z,10.37
2022-10-22T20:40:30.696Z,9.90
2022-10-22T20:42:57.112Z,8.70
2022-10-22T20:45:23.917Z,11.33
2022-10-22T20:47:51.781Z,9.60
2022-10-22T20:50:29.626Z,9.87
2022-10-22T20:52:56.081Z,9.40
2022-10-22T20:55:22.661Z,11.50
2022-10-22T20:57:49.330Z,9.80
2022-10-22T21:00:15.895Z,12.07
2022-10-22T21:02:42.419Z,12.57
2022-10-22T21:05:09.146Z,11.37
2022-10-22T21:07:35.619Z,11.87
2022-10-22T21:10:02.687Z,10.43
2022-10-22T21:12:29.121Z,9.50
2022-10-22T21:14:55.560Z,10.80
2022-10-22T21:17:21.978Z,10.83
2022-10-22T21:19:48.490Z,10.93
2022-10-22T21:22:14.926Z,9.17
2022-10-22T21:24:42.158Z,9.60
2022-10-22T21:27:08.640Z,11.33
2022-10-22T21:29:36.616Z,9.00
2022-10-22T21:32:03.153Z,9.13
2022-10-22T21:34:29.571Z,8.90
2022-10-22T21:36:56.043Z,9.50
2022-10-22T21:39:22.446Z,9.30
2022-10-22T21:41:48.865Z,9.47
2022-10-22T21:44:15.260Z,9.20
2022-10-22T21:46:41.670Z,9.60
2022-10-22T21:49:08.221Z,10.00
2022-10-22T21:51:37.973Z,9.03
2022-10-22T21:54:04.897Z,9.63
2022-10-22T21:56:33.689Z,9.40
2022-10-22T21:59:00.734Z,10.20
2022-10-22T22:01:27.253Z,10.63
2022-10-22T22:03:53.842Z,9.33
2022-10-22T22:06:23.345Z,10.27
2022-10-22T22:08:51.608Z,9.70
2022-10-22T22:11:23.061Z,9.83
2022-10-22T22:13:50.087Z,8.53
2022-10-22T22:16:22.450Z,11.00
2022-10-22T22:18:52.129Z,11.40
2022-10-22T22:21:20.428Z,10.73
2022-10-22T22:23:48.198Z,11.37
2022-10-22T22:26:18.025Z,10.17
2022-10-22T22:28:44.424Z,11.10
2022-10-22T22:31:18.764Z,12.37
2022-10-22T22:33:45.749Z,13.13
2022-10-22T22:36:12.225Z,13.60
2022-10-22T22:38:38.823Z,12.23
2022-10-22T22:41:06.281Z,12.00
2022-10-22T22:43:33.006Z,12.43
2022-10-22T22:46:11.863Z,10.67
2022-10-22T22:48:38.443Z,11.13
2022-10-22T22:51:06.248Z,11.77
2022-10-22T22:53:34.354Z,10.37
2022-10-22T22:56:22.174Z,18.33
2022-10-22T22:58:48.675Z,13.00
2022-10-22T23:01:29.490Z,13.50
2022-10-22T23:04:14.260Z,12.13
2022-10-22T23:06:40.768Z,12.70
2022-10-22T23:09:10.314Z,11.97
2022-10-22T23:11:37.221Z,10.70
2022-10-22T23:14:05.701Z,10.90
2022-10-22T23:16:34.873Z,10.97
2022-10-22T23:19:04.337Z,10.40
2022-10-22T23:21:33.543Z,10.50
2022-10-22T23:24:02.296Z,10.70
2022-10-22T23:26:31.463Z,10.17
2022-10-22T23:29:02.610Z,9.60
2022-10-22T23:31:29.274Z,10.50
2022-10-22T23:33:55.804Z,10.77
2022-10-22T23:36:22.215Z,10.93
2022-10-22T23:38:50.179Z,10.80
2022-10-22T23:41:17.293Z,11.10
2022-10-22T23:43:44.041Z,11.50
2022-10-22T23:46:11.912Z,10.57
2022-10-22T23:48:41.674Z,9.60
2022-10-22T23:51:11.581Z,9.67
2022-10-22T23:53:38.533Z,10.20
2022-10-22T23:56:07.299Z,11.33
2022-10-22T23:58:34.626Z,10.90
